Time;durP1;ratioP1;P1;durP2;ratioP2;P2;SDS_P1;SDS_P2;PMS_P1;PMS_P2;Temp;Humidity;BMP_temperature;BMP_pressure;BME280_temperature;BME280_humidity;BME280_pressure;Samples;Min_cycle;Max_cycle;Signal;HPM_P1;HPM_P2
2022/11/02 00:00:00;;;;;;;31.48;20.20;;;;;;;;;;5051997;28;20100;-73
2022/11/02 00:02:26;;;;;;;26.42;15.60;;;;;;;;;;5051844;28;20025;-72
2022/11/02 00:04:52;;;;;;;23.48;14.95;;;;;;;;;;5052579;28;20040;-72
2022/11/02 00:07:18;;;;;;;21.83;13.20;;;;;;;;;;5055244;28;20036;-72
2022/11/02 00:09:44;;;;;;;26.02;14.48;;;;;;;;;;5055498;28;20033;-72
2022/11/02 00:12:10;;;;;;;26.30;14.77;;;;;;;;;;5055278;28;20021;-72
2022/11/02 00:14:36;;;;;;;29.20;14.57;;;;;;;;;;5055559;28;20029;-72
2022/11/02 00:17:02;;;;;;;22.52;14.65;;;;;;;;;;5055222;28;20032;-72
2022/11/02 00:19:28;;;;;;;26.98;15.55;;;;;;;;;;5055468;28;20498;-72
2022/11/02 00:21:55;;;;;;;22.60;15.27;;;;;;;;;;5054958;28;20072;-73
2022/11/02 00:24:21;;;;;;;24.65;13.32;;;;;;;;;;5055080;28;20025;-72
2022/11/02 00:26:47;;;;;;;21.98;13.07;;;;;;;;;;5055086;28;20045;-72
2022/11/02 00:29:13;;;;;;;23.52;13.82;;;;;;;;;;5055186;28;20020;-73
2022/11/02 00:31:40;;;;;;;25.55;13.93;;;;;;;;;;5055329;28;20021;-73
2022/11/02 00:34:06;;;;;;;21.25;13.02;;;;;;;;;;5034597;28;20498;-74
2022/11/02 00:36:33;;;;;;;23.00;12.75;;;;;;;;;;5045035;28;20361;-73
2022/11/02 00:38:59;;;;;;;21.80;13.15;;;;;;;;;;5054923;28;20025;-74
2022/11/02 00:41:25;;;;;;;23.45;14.07;;;;;;;;;;5054605;28;20025;-73
2022/11/02 00:43:51;;;;;;;25.42;14.35;;;;;;;;;;5054617;28;20128;-73
2022/11/02 00:46:17;;;;;;;22.40;12.70;;;;;;;;;;5054634;28;20033;-73
2022/11/02 00:48:43;;;;;;;20.35;12.75;;;;;;;;;;5054802;28;20025;-72
2022/11/02 00:51:09;;;;;;;22.20;13.00;;;;;;;;;;5054416;28;20033;-73
2022/11/02 00:53:35;;;;;;;24.00;13.25;;;;;;;;;;5054553;28;20044;-75
2022/11/02 00:56:01;;;;;;;21.30;12.60;;;;;;;;;;5054537;28;20032;-74
2022/11/02 00:58:27;;;;;;;20.08;12.80;;;;;;;;;;5054555;28;20032;-73
2022/11/02 01:00:55;;;;;;;21.52;12.68;;;;;;;;;;5054448;28;20111;-73
2022/11/02 01:03:21;;;;;;;19.10;11.55;;;;;;;;;;5054348;28;20051;-75
2022/11/02 01:05:47;;;;;;;22.75;12.63;;;;;;;;;;5054476;28;20037;-74
2022/11/02 01:08:13;;;;;;;22.17;12.48;;;;;;;;;;5052986;28;20044;-73
2022/11/02 01:10:39;;;;;;;19.13;11.13;;;;;;;;;;5054332;28;20472;-73
2022/11/02 01:13:05;;;;;;;24.10;12.63;;;;;;;;;;5054319;28;20551;-73
2022/11/02 01:15:31;;;;;;;18.17;11.70;;;;;;;;;;5054141;28;20033;-73
2022/11/02 01:17:57;;;;;;;16.45;11.77;;;;;;;;;;5053020;28;20024;-73
2022/11/02 01:20:23;;;;;;;17.70;11.25;;;;;;;;;;5054189;28;20029;-72
2022/11/02 01:22:49;;;;;;;21.48;11.15;;;;;;;;;;5053810;28;20360;-72
2022/11/02 01:25:16;;;;;;;15.52;10.90;;;;;;;;;;5054183;28;20375;-72
2022/11/02 01:27:42;;;;;;;22.17;11.70;;;;;;;;;;5054175;28;20067;-72
2022/11/02 01:30:08;;;;;;;17.95;11.32;;;;;;;;;;5054010;28;20024;-72
2022/11/02 01:32:34;;;;;;;18.23;10.82;;;;;;;;;;5053820;28;20013;-73
2022/11/02 01:35:01;;;;;;;17.35;9.88;;;;;;;;;;5053803;28;20071;-72
2022/11/02 01:37:27;;;;;;;16.13;10.50;;;;;;;;;;5053595;28;20017;-72
2022/11/02 01:39:53;;;;;;;15.82;9.48;;;;;;;;;;5053902;28;20052;-73
2022/11/02 01:42:21;;;;;;;21.52;9.43;;;;;;;;;;5053220;28;20472;-74
2022/11/02 01:44:47;;;;;;;14.30;9.13;;;;;;;;;;5053741;28;20052;-72
2022/11/02 01:47:22;;;;;;;18.45;9.00;;;;;;;;;;5053825;28;20021;-72
2022/11/02 01:49:50;;;;;;;15.93;10.20;;;;;;;;;;5040916;28;20025;-72
2022/11/02 01:52:18;;;;;;;21.25;10.80;;;;;;;;;;5053302;28;20044;-72
2022/11/02 01:55:00;;;;;;;14.77;9.88;;;;;;;;;;5053635;28;20021;-72
2022/11/02 01:57:26;;;;;;;21.13;11.13;;;;;;;;;;5053304;28;20021;-72
2022/11/02 02:00:05;;;;;;;22.50;10.73;;;;;;;;;;5053845;28;20053;-72
2022/11/02 02:02:32;;;;;;;23.25;10.70;;;;;;;;;;5053139;28;20017;-76
2022/11/02 02:05:08;;;;;;;19.77;12.32;;;;;;;;;;5053131;28;20037;-73
2022/11/02 02:07:36;;;;;;;18.73;11.43;;;;;;;;;;5053332;28;20024;-72
2022/11/02 02:10:02;;;;;;;24.48;11.07;;;;;;;;;;5053139;28;20031;-76
2022/11/02 02:12:28;;;;;;;20.88;11.90;;;;;;;;;;5053520;28;20078;-72
2022/11/02 02:14:54;;;;;;;23.10;10.88;;;;;;;;;;5053487;28;20029;-72
2022/11/02 02:17:26;;;;;;;19.10;11.55;;;;;;;;;;5053552;28;20041;-72
2022/11/02 02:19:52;;;;;;;16.00;10.70;;;;;;;;;;5038943;28;20025;-73
2022/11/02 02:22:31;;;;;;;19.30;10.30;;;;;;;;;;5052015;28;20021;-73
2022/11/02 02:25:23;;;;;;;18.55;10.07;;;;;;;;;;5052754;28;20110;-72
2022/11/02 02:28:05;;;;;;;25.50;11.98;;;;;;;;;;5022169;28;20499;-72
2022/11/02 02:30:34;;;;;;;19.58;10.48;;;;;;;;;;5036366;28;20400;-75
2022/11/02 02:33:03;;;;;;;17.77;10.00;;;;;;;;;;5052948;28;20029;-73
2022/11/02 02:35:36;;;;;;;19.08;9.73;;;;;;;;;;5052672;28;20095;-73
2022/11/02 02:38:06;;;;;;;22.63;10.20;;;;;;;;;;5052924;28;20096;-73
2022/11/02 02:40:51;;;;;;;17.83;10.15;;;;;;;;;;5052317;28;20052;-73
2022/11/02 02:43:17;;;;;;;16.70;10.35;;;;;;;;;;5052309;28;20131;-73
2022/11/02 02:45:55;;;;;;;21.38;11.07;;;;;;;;;;5052667;28;20124;-73
2022/11/02 02:48:23;;;;;;;22.98;12.57;;;;;;;;;;5052569;28;20025;-73
2022/11/02 02:50:49;;;;;;;21.73;10.68;;;;;;;;;;5052694;28;20028;-73
2022/11/02 02:53:18;;;;;;;21.48;11.15;;;;;;;;;;5052228;28;20100;-72
2022/11/02 02:55:46;;;;;;;25.35;11.35;;;;;;;;;;5052628;28;20025;-72
2022/11/02 02:58:15;;;;;;;23.60;10.40;;;;;;;;;;5052332;28;20044;-73
2022/11/02 03:00:41;;;;;;;21.50;10.73;;;;;;;;;;5052627;28;20032;-72
2022/11/02 03:03:15;;;;;;;19.45;10.52;;;;;;;;;;5052341;28;20480;-72
2022/11/02 03:05:41;;;;;;;18.52;10.50;;;;;;;;;;5052426;28;20033;-72
2022/11/02 03:08:12;;;;;;;16.00;11.15;;;;;;;;;;5052230;28;20025;-72
2022/11/02 03:10:58;;;;;;;25.85;14.65;;;;;;;;;;5052532;28;20031;-73
2022/11/02 03:13:43;;;;;;;21.75;14.15;;;;;;;;;;5038375;28;20037;-72
2022/11/02 03:16:15;;;;;;;22.58;13.75;;;;;;;;;;5052449;28;20036;-72
2022/11/02 03:18:49;;;;;;;19.27;12.07;;;;;;;;;;5052223;28;20017;-72
2022/11/02 03:21:23;;;;;;;18.58;11.10;;;;;;;;;;5052321;28;20497;-72
2022/11/02 03:23:54;;;;;;;17.92;12.00;;;;;;;;;;5036339;28;20028;-72
2022/11/02 03:26:20;;;;;;;;;;;;;;;;;;5040445;28;20488;-72
2022/11/02 03:28:52;;;;;;;23.42;13.27;;;;;;;;;;5048474;28;19904;-72
2022/11/02 03:31:18;;;;;;;27.70;14.63;;;;;;;;;;5052205;28;20379;-72
2022/11/02 03:33:48;;;;;;;23.40;16.48;;;;;;;;;;5052229;28;20024;-72
2022/11/02 03:36:25;;;;;;;30.42;18.27;;;;;;;;;;5052125;28;20357;-72
2022/11/02 03:38:54;;;;;;;37.22;20.20;;;;;;;;;;5052203;28;20467;-72
2022/11/02 03:41:21;;;;;;;29.67;20.92;;;;;;;;;;5055105;28;20079;-72
2022/11/02 03:43:49;;;;;;;33.95;19.70;;;;;;;;;;5055706;28;20554;-72
2022/11/02 03:46:15;;;;;;;24.42;15.00;;;;;;;;;;5055732;28;20044;-72
2022/11/02 03:48:44;;;;;;;19.58;10.93;;;;;;;;;;5056115;28;20021;-72
2022/11/02 03:51:12;;;;;;;17.27;10.18;;;;;;;;;;5055582;28;20031;-72
2022/11/02 03:53:45;;;;;;;19.63;10.57;;;;;;;;;;5056048;28;20048;-72
2022/11/02 03:56:18;;;;;;;48.83;28.10;;;;;;;;;;5055965;28;20451;-72
2022/11/02 03:58:44;;;;;;;27.58;14.57;;;;;;;;;;5042794;28;20108;-72
2022/11/02 04:01:11;;;;;;;20.88;12.68;;;;;;;;;;5055606;28;20075;-72
2022/11/02 04:03:42;;;;;;;20.58;13.20;;;;;;;;;;5055555;28;20060;-72
2022/11/02 04:06:08;;;;;;;25.30;12.80;;;;;;;;;;5055382;28;20037;-72
2022/11/02 04:08:43;;;;;;;24.38;12.57;;;;;;;;;;5055641;28;20074;-72
2022/11/02 04:16:42;;;;;;;16.02;10.05;;;;;;;;;;5055781;28;20442;-72
2022/11/02 04:19:26;;;;;;;20.83;11.82;;;;;;;;;;5055792;28;20052;-73
2022/11/02 04:27:21;;;;;;;18.73;10.32;;;;;;;;;;5055361;28;20044;-73
2022/11/02 04:29:47;;;;;;;15.63;9.88;;;;;;;;;;5054895;28;20523;-73
2022/11/02 04:32:13;;;;;;;15.02;10.38;;;;;;;;;;5055114;28;20025;-72
2022/11/02 04:34:39;;;;;;;23.58;10.85;;;;;;;;;;5055057;28;20143;-72
2022/11/02 04:38:39;;;;;;;19.42;10.05;;;;;;;;;;5054978;28;20056;-74
2022/11/02 04:39:51;;;;;;;19.50;10.75;;;;;;;;;;5055363;28;20406;-72
2022/11/02 04:42:17;;;;;;;17.48;10.65;;;;;;;;;;5054444;28;20021;-72
2022/11/02 04:44:43;;;;;;;17.10;12.43;;;;;;;;;;5054845;28;20060;-72
2022/11/02 04:47:09;;;;;;;20.65;10.75;;;;;;;;;;5054617;28;20078;-72
2022/11/02 04:49:36;;;;;;;17.67;10.25;;;;;;;;;;5054680;28;20021;-72
2022/11/02 04:52:02;;;;;;;21.85;13.35;;;;;;;;;;5054971;28;20104;-72
2022/11/02 04:54:28;;;;;;;27.60;18.65;;;;;;;;;;5054685;28;20033;-72
2022/11/02 04:56:54;;;;;;;26.77;16.88;;;;;;;;;;5054351;28;20025;-73
2022/11/02 04:59:20;;;;;;;22.73;15.48;;;;;;;;;;5054518;28;20021;-72
2022/11/02 05:01:46;;;;;;;21.50;12.85;;;;;;;;;;5054648;28;20033;-72
2022/11/02 05:04:12;;;;;;;18.73;12.48;;;;;;;;;;5054558;28;20467;-72
2022/11/02 05:06:38;;;;;;;21.75;13.07;;;;;;;;;;5054201;28;20033;-72
2022/11/02 05:09:04;;;;;;;35.40;22.45;;;;;;;;;;5054973;28;20120;-73
2022/11/02 05:11:30;;;;;;;30.40;17.92;;;;;;;;;;5032282;28;20041;-73
2022/11/02 05:13:56;;;;;;;20.95;14.13;;;;;;;;;;5040356;28;20036;-72
2022/11/02 05:16:22;;;;;;;22.98;11.27;;;;;;;;;;5054144;28;20071;-72
2022/11/02 05:18:48;;;;;;;16.05;10.27;;;;;;;;;;5054300;28;20395;-72
2022/11/02 05:21:14;;;;;;;17.35;10.50;;;;;;;;;;5054114;28;20494;-72
2022/11/02 05:23:40;;;;;;;15.40;9.25;;;;;;;;;;5054521;28;20483;-72
2022/11/02 05:26:10;;;;;;;18.10;9.93;;;;;;;;;;5053788;28;20040;-73
2022/11/02 05:28:36;;;;;;;15.60;10.05;;;;;;;;;;5053892;28;20017;-72
2022/11/02 05:31:03;;;;;;;15.90;10.02;;;;;;;;;;5054147;28;20420;-72
2022/11/02 05:33:29;;;;;;;18.27;11.05;;;;;;;;;;5053962;28;20032;-72
2022/11/02 05:35:56;;;;;;;16.52;10.35;;;;;;;;;;5032238;28;20068;-72
2022/11/02 05:38:23;;;;;;;50.50;30.48;;;;;;;;;;5045113;28;20021;-73
2022/11/02 05:40:53;;;;;;;38.38;21.65;;;;;;;;;;5038047;28;20116;-72
2022/11/02 05:43:19;;;;;;;19.13;13.57;;;;;;;;;;5053354;28;20037;-71
2022/11/02 05:45:50;;;;;;;15.20;10.13;;;;;;;;;;5053573;28;20147;-72
2022/11/02 05:48:16;;;;;;;16.13;9.82;;;;;;;;;;5054014;28;20028;-72
2022/11/02 05:50:42;;;;;;;14.35;10.27;;;;;;;;;;5053568;28;20024;-73
2022/11/02 05:53:08;;;;;;;16.67;9.40;;;;;;;;;;5053548;28;20029;-72
2022/11/02 05:55:34;;;;;;;22.23;11.75;;;;;;;;;;5053800;28;20439;-72
2022/11/02 05:58:00;;;;;;;29.33;13.07;;;;;;;;;;5053345;28;20024;-72
2022/11/02 06:00:26;;;;;;;26.75;11.93;;;;;;;;;;5053415;28;20028;-74
2022/11/02 06:02:57;;;;;;;18.77;12.10;;;;;;;;;;5052972;28;20048;-75
2022/11/02 06:05:23;;;;;;;27.33;12.73;;;;;;;;;;5053125;28;20025;-71
2022/11/02 06:07:49;;;;;;;21.77;11.60;;;;;;;;;;5053596;28;20056;-74
2022/11/02 06:10:15;;;;;;;22.10;10.90;;;;;;;;;;5053266;28;20045;-73
2022/11/02 06:12:41;;;;;;;20.10;12.98;;;;;;;;;;5053194;28;20053;-72
2022/11/02 06:15:08;;;;;;;21.50;13.88;;;;;;;;;;5053181;28;20029;-74
2022/11/02 06:17:38;;;;;;;19.27;11.43;;;;;;;;;;5053234;28;20025;-75
2022/11/02 06:20:04;;;;;;;23.60;13.25;;;;;;;;;;5053064;28;20059;-72
2022/11/02 06:22:30;;;;;;;21.75;13.40;;;;;;;;;;5052970;28;20096;-72
2022/11/02 06:24:56;;;;;;;23.70;12.88;;;;;;;;;;5053087;28;20057;-72
2022/11/02 06:27:22;;;;;;;20.67;12.13;;;;;;;;;;5053115;28;20036;-72
2022/11/02 06:29:48;;;;;;;25.27;12.95;;;;;;;;;;5040008;28;20075;-72
2022/11/02 06:32:14;;;;;;;25.00;13.63;;;;;;;;;;5049470;28;20095;-72
2022/11/02 06:34:40;;;;;;;21.73;13.65;;;;;;;;;;5052985;28;20021;-73
2022/11/02 06:37:06;;;;;;;27.40;13.65;;;;;;;;;;5052803;28;20032;-74
2022/11/02 06:39:32;;;;;;;35.28;14.82;;;;;;;;;;5052859;28;20056;-72
2022/11/02 06:41:58;;;;;;;25.48;13.75;;;;;;;;;;5052726;28;20029;-71
2022/11/02 06:44:24;;;;;;;22.33;13.07;;;;;;;;;;5053017;28;20041;-72
2022/11/02 06:46:50;;;;;;;24.80;14.45;;;;;;;;;;5052828;28;20082;-72
2022/11/02 06:49:16;;;;;;;27.23;14.23;;;;;;;;;;5052615;28;20036;-72
2022/11/02 06:51:42;;;;;;;33.58;17.13;;;;;;;;;;5052713;28;20111;-72
2022/11/02 06:54:08;;;;;;;34.63;17.48;;;;;;;;;;5052651;28;20024;-72
2022/11/02 06:56:34;;;;;;;31.65;17.77;;;;;;;;;;5052319;28;20021;-72
2022/11/02 06:59:00;;;;;;;36.30;18.95;;;;;;;;;;5052516;28;20498;-72
2022/11/02 07:01:26;;;;;;;34.10;19.05;;;;;;;;;;5052235;28;20029;-72
2022/11/02 07:03:52;;;;;;;34.92;20.88;;;;;;;;;;5052604;28;20078;-73
2022/11/02 07:06:18;;;;;;;42.33;20.58;;;;;;;;;;5052409;28;20090;-72
2022/11/02 07:08:44;;;;;;;44.53;21.58;;;;;;;;;;5052368;28;20542;-72
2022/11/02 07:11:15;;;;;;;39.97;22.08;;;;;;;;;;5052475;28;20075;-72
2022/11/02 07:13:41;;;;;;;37.65;21.88;;;;;;;;;;5053034;28;20104;-72
2022/11/02 07:16:07;;;;;;;46.50;25.30;;;;;;;;;;5056544;28;20075;-72
2022/11/02 07:18:33;;;;;;;40.47;23.67;;;;;;;;;;5056458;28;20028;-72
2022/11/02 07:21:00;;;;;;;33.33;20.65;;;;;;;;;;5056708;28;20028;-73
2022/11/02 07:23:26;;;;;;;40.63;20.92;;;;;;;;;;5056333;28;20024;-72
2022/11/02 07:25:52;;;;;;;29.52;17.90;;;;;;;;;;5056376;28;20064;-72
2022/11/02 07:28:18;;;;;;;44.35;25.52;;;;;;;;;;5056042;28;20529;-72
2022/11/02 07:30:44;;;;;;;36.22;16.52;;;;;;;;;;5056087;28;20021;-72
2022/11/02 07:33:11;;;;;;;28.88;15.43;;;;;;;;;;5056204;28;20100;-72
2022/11/02 07:35:37;;;;;;;28.27;15.15;;;;;;;;;;5056254;28;20025;-72
2022/11/02 07:38:04;;;;;;;26.08;15.63;;;;;;;;;;5056190;28;20028;-72
2022/11/02 07:40:31;;;;;;;34.58;16.63;;;;;;;;;;5056042;28;20021;-73
2022/11/02 07:42:57;;;;;;;38.45;17.25;;;;;;;;;;5055904;28;20113;-72
2022/11/02 07:45:24;;;;;;;29.00;15.20;;;;;;;;;;5056093;28;20040;-73
2022/11/02 07:47:50;;;;;;;23.13;12.13;;;;;;;;;;5039546;28;20065;-72
2022/11/02 07:50:18;;;;;;;20.15;11.25;;;;;;;;;;5055888;28;20028;-72
2022/11/02 07:52:47;;;;;;;19.45;12.70;;;;;;;;;;5055921;28;20056;-73
2022/11/02 07:55:14;;;;;;;39.83;22.45;;;;;;;;;;5055732;28;20021;-72
2022/11/02 07:57:42;;;;;;;41.20;23.13;;;;;;;;;;5055581;28;20020;-73
2022/11/02 08:00:09;;;;;;;44.90;24.33;;;;;;;;;;5055708;28;20379;-73
2022/11/02 08:02:35;;;;;;;46.25;21.65;;;;;;;;;;5055796;28;20021;-74
2022/11/02 08:05:01;;;;;;;57.17;29.48;;;;;;;;;;5055430;28;20036;-72
2022/11/02 08:07:27;;;;;;;45.72;30.40;;;;;;;;;;5055628;28;20052;-72
2022/11/02 08:09:53;;;;;;;59.08;33.75;;;;;;;;;;5055545;28;20075;-73
2022/11/02 08:12:19;;;;;;;35.80;22.20;;;;;;;;;;5055651;28;20021;-73
2022/11/02 08:14:45;;;;;;;46.35;27.50;;;;;;;;;;5041477;28;20473;-72
2022/11/02 08:17:11;;;;;;;52.05;30.20;;;;;;;;;;5054154;28;20020;-73
2022/11/02 08:19:37;;;;;;;55.45;31.42;;;;;;;;;;5055381;28;20057;-73
2022/11/02 08:22:03;;;;;;;53.70;30.50;;;;;;;;;;5055302;28;20032;-72
2022/11/02 08:24:29;;;;;;;56.33;31.70;;;;;;;;;;5055310;28;20143;-73
2022/11/02 08:26:55;;;;;;;50.42;29.45;;;;;;;;;;5054626;28;20033;-76
2022/11/02 08:29:21;;;;;;;44.20;28.13;;;;;;;;;;5046672;28;20055;-73
2022/11/02 08:31:47;;;;;;;48.08;27.95;;;;;;;;;;5035322;28;20025;-75
2022/11/02 08:34:13;;;;;;;42.80;27.13;;;;;;;;;;5052724;28;20021;-73
2022/11/02 08:36:39;;;;;;;52.97;29.08;;;;;;;;;;5054887;28;20472;-72
2022/11/02 08:39:05;;;;;;;39.35;25.77;;;;;;;;;;5054955;28;20021;-73
2022/11/02 08:41:32;;;;;;;51.05;27.42;;;;;;;;;;5043566;28;20040;-73
2022/11/02 08:43:58;;;;;;;46.67;28.10;;;;;;;;;;5050069;28;20475;-73
2022/11/02 08:46:24;;;;;;;48.03;26.83;;;;;;;;;;5054837;28;20025;-72
2022/11/02 08:48:50;;;;;;;43.25;26.08;;;;;;;;;;5054686;28;20071;-74
2022/11/02 08:51:16;;;;;;;42.75;25.90;;;;;;;;;;5054537;28;20029;-72
2022/11/02 08:53:42;;;;;;;35.53;22.23;;;;;;;;;;5054910;28;20016;-73
2022/11/02 08:56:08;;;;;;;38.40;22.45;;;;;;;;;;5054678;28;20151;-76
2022/11/02 08:58:34;;;;;;;35.92;22.25;;;;;;;;;;5054909;28;20399;-72
2022/11/02 09:01:00;;;;;;;35.33;23.10;;;;;;;;;;5054488;28;20033;-74
2022/11/02 09:03:27;;;;;;;38.60;21.42;;;;;;;;;;5054345;28;20024;-72
2022/11/02 09:05:56;;;;;;;34.60;20.23;;;;;;;;;;5052541;28;20045;-71
2022/11/02 09:08:22;;;;;;;41.45;23.60;;;;;;;;;;5054234;28;20025;-72
2022/11/02 09:10:51;;;;;;;34.90;21.85;;;;;;;;;;5054377;28;20029;-72
2022/11/02 09:13:19;;;;;;;31.45;21.60;;;;;;;;;;5054571;28;20098;-73
2022/11/02 09:15:48;;;;;;;38.58;22.40;;;;;;;;;;5054314;28;20048;-72
2022/11/02 09:18:14;;;;;;;32.63;23.30;;;;;;;;;;5054387;28;20057;-72
2022/11/02 09:20:40;;;;;;;38.50;22.15;;;;;;;;;;5053934;28;20103;-72
2022/11/02 09:23:06;;;;;;;32.35;22.92;;;;;;;;;;5054560;28;20505;-73
2022/11/02 09:25:33;;;;;;;34.53;22.92;;;;;;;;;;5053880;28;20395;-72
2022/11/02 09:27:59;;;;;;;35.92;24.70;;;;;;;;;;5053985;28;20083;-72
2022/11/02 09:30:27;;;;;;;32.38;27.42;;;;;;;;;;5054009;28;20417;-74
2022/11/02 09:33:04;;;;;;;33.90;25.80;;;;;;;;;;5053841;28;20023;-73
2022/11/02 09:35:31;;;;;;;40.05;28.80;;;;;;;;;;5053781;28;20419;-72
2022/11/02 09:37:57;;;;;;;42.53;30.13;;;;;;;;;;5052850;28;20021;-72
2022/11/02 09:40:24;;;;;;;39.17;31.17;;;;;;;;;;5053855;28;20028;-72
2022/11/02 09:42:53;;;;;;;41.08;28.70;;;;;;;;;;5053309;28;20509;-73
2022/11/02 09:45:20;;;;;;;37.90;29.27;;;;;;;;;;5039866;28;20403;-73
2022/11/02 09:47:54;;;;;;;37.22;29.02;;;;;;;;;;5050123;28;20025;-72
2022/11/02 09:50:22;;;;;;;37.58;27.38;;;;;;;;;;5053543;28;20021;-72
2022/11/02 09:52:57;;;;;;;31.88;25.15;;;;;;;;;;5053550;28;20079;-72
2022/11/02 09:55:26;;;;;;;30.80;25.33;;;;;;;;;;5040716;28;20013;-72
2022/11/02 09:57:57;;;;;;;33.05;27.48;;;;;;;;;;5053518;28;20021;-73
2022/11/02 10:00:23;;;;;;;30.27;25.27;;;;;;;;;;5053376;28;20021;-72
2022/11/02 10:03:01;;;;;;;34.78;27.48;;;;;;;;;;5053443;28;20372;-73
2022/11/02 10:05:41;;;;;;;36.70;28.17;;;;;;;;;;5053228;28;20135;-73
2022/11/02 10:08:07;;;;;;;34.72;27.90;;;;;;;;;;5053089;28;20100;-73
2022/11/02 10:10:33;;;;;;;37.10;29.27;;;;;;;;;;5053229;28;20032;-73
2022/11/02 10:13:18;;;;;;;44.75;31.23;;;;;;;;;;5053322;28;20443;-76
2022/11/02 10:15:54;;;;;;;38.92;30.70;;;;;;;;;;5053118;28;20037;-73
2022/11/02 10:18:23;;;;;;;42.25;30.73;;;;;;;;;;5053048;28;20054;-76
2022/11/02 10:20:57;;;;;;;42.85;34.13;;;;;;;;;;5053018;28;20056;-73
2022/11/02 10:23:26;;;;;;;47.63;33.38;;;;;;;;;;5053103;28;20025;-76
2022/11/02 10:25:52;;;;;;;35.58;31.17;;;;;;;;;;5039243;28;20036;-73
2022/11/02 10:28:22;;;;;;;40.20;34.53;;;;;;;;;;5053239;28;20029;-73
2022/11/02 10:30:49;;;;;;;42.20;33.63;;;;;;;;;;5052801;28;20032;-74
2022/11/02 10:33:17;;;;;;;38.10;30.60;;;;;;;;;;5053263;28;20048;-76
2022/11/02 10:35:59;;;;;;;37.92;31.17;;;;;;;;;;5052807;28;20079;-76
2022/11/02 10:38:28;;;;;;;42.10;33.85;;;;;;;;;;5052841;28;20017;-75
2022/11/02 10:41:13;;;;;;;36.47;32.53;;;;;;;;;;5052566;28;20029;-74
2022/11/02 10:43:39;;;;;;;46.53;39.60;;;;;;;;;;5052276;28;20048;-73
2022/11/02 10:46:24;;;;;;;41.65;36.25;;;;;;;;;;5052220;28;20118;-73
2022/11/02 10:48:56;;;;;;;189.60;146.65;;;;;;;;;;5052393;28;20356;-73
2022/11/02 10:51:23;;;;;;;80.47;60.10;;;;;;;;;;5048490;28;20541;-73
2022/11/02 10:53:50;;;;;;;51.80;40.83;;;;;;;;;;5052782;28;20013;-73
2022/11/02 10:56:20;;;;;;;44.70;38.17;;;;;;;;;;5052208;28;20029;-73
2022/11/02 10:58:52;;;;;;;44.58;38.17;;;;;;;;;;5052762;28;20025;-76
2022/11/02 11:01:18;;;;;;;46.28;40.95;;;;;;;;;;5052386;28;20508;-73
2022/11/02 11:04:10;;;;;;;46.17;37.85;;;;;;;;;;5053067;28;20056;-72
2022/11/02 11:06:38;;;;;;;47.55;37.92;;;;;;;;;;5042958;28;20041;-73
2022/11/02 11:09:24;;;;;;;46.38;38.15;;;;;;;;;;5052442;28;20053;-73
2022/11/02 11:11:56;;;;;;;51.63;39.25;;;;;;;;;;5051988;28;20348;-72
2022/11/02 11:14:23;;;;;;;44.88;37.45;;;;;;;;;;5052181;28;20029;-73
2022/11/02 11:16:51;;;;;;;48.25;38.65;;;;;;;;;;5052066;28;20326;-73
2022/11/02 11:19:37;;;;;;;44.65;37.97;;;;;;;;;;5052214;28;20094;-73
2022/11/02 11:22:22;;;;;;;51.05;38.88;;;;;;;;;;5052293;28;20029;-73
2022/11/02 11:24:48;;;;;;;50.13;40.10;;;;;;;;;;5052036;28;20037;-73
2022/11/02 11:27:18;;;;;;;47.40;41.33;;;;;;;;;;5052268;28;20031;-73
2022/11/02 11:29:55;;;;;;;52.90;40.95;;;;;;;;;;5052033;28;20056;-74
2022/11/02 11:32:28;;;;;;;48.63;38.97;;;;;;;;;;5052212;28;20066;-73
2022/11/02 11:34:56;;;;;;;54.25;40.92;;;;;;;;;;5052206;28;20395;-74
2022/11/02 11:37:22;;;;;;;51.53;42.40;;;;;;;;;;5052004;28;20025;-73
2022/11/02 11:39:51;;;;;;;51.60;41.97;;;;;;;;;;5051951;28;20491;-73
2022/11/02 11:42:19;;;;;;;54.03;41.67;;;;;;;;;;5051979;28;20379;-72
2022/11/02 11:44:55;;;;;;;49.42;40.50;;;;;;;;;;5051645;28;20044;-73
2022/11/02 11:47:25;;;;;;;52.95;40.88;;;;;;;;;;5052072;28;20096;-73
2022/11/02 11:49:52;;;;;;;52.88;41.78;;;;;;;;;;5051949;28;20048;-72
2022/11/02 11:52:22;;;;;;;50.60;40.70;;;;;;;;;;5051975;28;20025;-73
2022/11/02 11:54:52;;;;;;;50.67;39.17;;;;;;;;;;5051859;28;20078;-73
2022/11/02 11:57:26;;;;;;;49.88;38.70;;;;;;;;;;5051726;28;20025;-73
2022/11/02 11:59:54;;;;;;;48.83;39.67;;;;;;;;;;5051967;28;20021;-75
2022/11/02 12:02:25;;;;;;;47.33;40.42;;;;;;;;;;5054706;28;20021;-73
2022/11/02 12:04:51;;;;;;;45.05;36.35;;;;;;;;;;5055280;28;20033;-73
2022/11/02 12:07:36;;;;;;;44.35;37.50;;;;;;;;;;5055184;28;20049;-75
2022/11/02 12:10:15;;;;;;;43.55;37.63;;;;;;;;;;5055675;28;20481;-75
2022/11/02 12:13:01;;;;;;;48.38;36.88;;;;;;;;;;5055044;28;20070;-73
2022/11/02 12:15:42;;;;;;;44.97;36.75;;;;;;;;;;4974194;28;20568;-74
2022/11/02 12:18:21;;;;;;;47.22;37.72;;;;;;;;;;4974280;28;20494;-73
2022/11/02 12:21:04;;;;;;;51.30;38.15;;;;;;;;;;4974490;28;20508;-73
2022/11/02 12:23:30;;;;;;;49.22;37.78;;;;;;;;;;4974137;28;20034;-73
2022/11/02 12:26:01;;;;;;;51.45;36.65;;;;;;;;;;4974181;28;20408;-72
2022/11/02 12:28:27;;;;;;;;;;;;;;;;;;4974637;28;20270;-73
2022/11/02 12:31:01;;;;;;;49.45;38.15;;;;;;;;;;4973666;28;20454;-73
2022/11/02 12:33:36;;;;;;;48.58;36.20;;;;;;;;;;4974250;28;20031;-73
2022/11/02 12:36:05;;;;;;;45.30;37.22;;;;;;;;;;4973906;28;20034;-75
2022/11/02 12:38:46;;;;;;;49.97;37.15;;;;;;;;;;4973915;28;20034;-73
2022/11/02 12:41:22;;;;;;;52.60;39.70;;;;;;;;;;4957690;28;20027;-73
2022/11/02 12:43:49;;;;;;;54.65;38.85;;;;;;;;;;4973631;28;20074;-74
2022/11/02 12:46:16;;;;;;;53.45;40.33;;;;;;;;;;4973679;28;20050;-73
2022/11/02 12:48:48;;;;;;;49.58;37.60;;;;;;;;;;4974013;28;20106;-72
2022/11/02 12:51:18;;;;;;;49.28;35.72;;;;;;;;;;4973518;28;20027;-73
2022/11/02 12:53:54;;;;;;;50.65;38.35;;;;;;;;;;5054655;28;20139;-73
2022/11/02 12:56:26;;;;;;;48.65;38.25;;;;;;;;;;5054351;28;20032;-73
2022/11/02 12:58:52;;;;;;;45.53;35.78;;;;;;;;;;5054839;28;20028;-72
2022/11/02 13:01:31;;;;;;;48.78;37.53;;;;;;;;;;5054503;28;20033;-72
2022/11/02 13:04:09;;;;;;;51.97;37.75;;;;;;;;;;5042202;28;20561;-74
2022/11/02 13:06:38;;;;;;;51.33;38.05;;;;;;;;;;5054154;28;20119;-74
2022/11/02 13:09:11;;;;;;;55.60;47.25;;;;;;;;;;5054238;28;20029;-73
2022/11/02 13:11:39;;;;;;;58.47;40.53;;;;;;;;;;5054006;28;20109;-72
2022/11/02 13:14:09;;;;;;;57.80;40.40;;;;;;;;;;5054136;28;20083;-72
2022/11/02 13:16:38;;;;;;;49.72;38.70;;;;;;;;;;5054378;28;20507;-73
2022/11/02 13:19:05;;;;;;;53.17;39.50;;;;;;;;;;5054207;28;20032;-74
2022/11/02 13:21:37;;;;;;;58.00;40.33;;;;;;;;;;5054736;28;20136;-74
2022/11/02 13:24:04;;;;;;;55.30;38.25;;;;;;;;;;5053901;28;20021;-72
2022/11/02 13:26:36;;;;;;;53.70;39.20;;;;;;;;;;5054085;28;20064;-72
2022/11/02 13:29:11;;;;;;;66.05;47.60;;;;;;;;;;5053614;28;20294;-72
2022/11/02 13:31:41;;;;;;;64.45;44.15;;;;;;;;;;5053962;28;20360;-72
2022/11/02 13:34:15;;;;;;;73.00;52.72;;;;;;;;;;5053609;28;20018;-73
2022/11/02 13:36:41;;;;;;;64.22;49.03;;;;;;;;;;5053870;28;20019;-72
2022/11/02 13:39:08;;;;;;;53.67;42.25;;;;;;;;;;5053525;28;20025;-72
2022/11/02 13:41:34;;;;;;;57.92;46.47;;;;;;;;;;5053469;28;20506;-73
2022/11/02 13:44:00;;;;;;;63.38;44.03;;;;;;;;;;5053042;28;20092;-72
2022/11/02 13:46:41;;;;;;;61.75;47.55;;;;;;;;;;5053471;28;20078;-72
2022/11/02 13:49:15;;;;;;;72.50;49.65;;;;;;;;;;5053422;28;20021;-73
2022/11/02 13:51:46;;;;;;;66.90;50.47;;;;;;;;;;5053281;28;20036;-73
2022/11/02 13:54:41;;;;;;;71.15;49.42;;;;;;;;;;5053527;28;20045;-74
2022/11/02 13:57:21;;;;;;;68.38;50.65;;;;;;;;;;4972242;28;20073;-72
2022/11/02 13:59:47;;;;;;;70.65;49.33;;;;;;;;;;4972465;28;20065;-72
2022/11/02 14:02:16;;;;;;;81.10;58.45;;;;;;;;;;4972278;28;20035;-73
2022/11/02 14:04:43;;;;;;;90.72;61.95;;;;;;;;;;4972383;28;20033;-72
2022/11/02 14:07:20;;;;;;;82.53;59.30;;;;;;;;;;4972280;28;20480;-72
2022/11/02 14:09:46;;;;;;;89.22;57.95;;;;;;;;;;4956196;28;20027;-72
2022/11/02 14:12:33;;;;;;;74.55;56.58;;;;;;;;;;4972125;28;20058;-72
2022/11/02 14:15:14;;;;;;;83.53;59.17;;;;;;;;;;4971893;28;20054;-73
2022/11/02 14:17:55;;;;;;;85.75;58.70;;;;;;;;;;4972077;28;20026;-72
2022/11/02 14:20:37;;;;;;;84.60;61.55;;;;;;;;;;4971977;28;20046;-72
2022/11/02 14:23:13;;;;;;;86.50;62.03;;;;;;;;;;4972244;28;20079;-72
2022/11/02 14:25:45;;;;;;;88.28;62.55;;;;;;;;;;4971734;28;20034;-72
2022/11/02 14:28:27;;;;;;;88.13;59.85;;;;;;;;;;4972140;28;20485;-72
2022/11/02 14:31:06;;;;;;;79.82;58.63;;;;;;;;;;4971821;28;20031;-72
2022/11/02 14:33:51;;;;;;;75.88;56.35;;;;;;;;;;5013758;28;20082;-72
2022/11/02 14:36:18;;;;;;;79.75;53.90;;;;;;;;;;5040664;28;20025;-72
2022/11/02 14:39:03;;;;;;;78.10;55.22;;;;;;;;;;5052561;28;20050;-73
2022/11/02 14:41:29;;;;;;;85.80;54.33;;;;;;;;;;5052471;28;20036;-72